sensor_id;sensor_type;location;lat;lon;timestamp;P1;durP1;ratioP1;P2;durP2;ratioP2
31978;SDS011;18502;43.574;1.276;2023-05-07T00:01:36;20.52;;;10.48;;
31978;SDS011;18502;43.574;1.276;2023-05-07T00:04:02;22.77;;;10.43;;
31978;SDS011;18502;43.574;1.276;2023-05-07T00:06:28;25.08;;;10.82;;
31978;SDS011;18502;43.574;1.276;2023-05-07T00:08:55;22.30;;;11.00;;
31978;SDS011;18502;43.574;1.276;2023-05-07T00:11:21;17.58;;;10.45;;
31978;SDS011;18502;43.574;1.276;2023-05-07T00:13:47;18.65;;;10.35;;
31978;SDS011;18502;43.574;1.276;2023-05-07T00:16:13;21.40;;;11.30;;
31978;SDS011;18502;43.574;1.276;2023-05-07T00:18:39;22.90;;;10.18;;
31978;SDS011;18502;43.574;1.276;2023-05-07T00:21:04;22.88;;;11.27;;
31978;SDS011;18502;43.574;1.276;2023-05-07T00:23:30;25.80;;;10.55;;
31978;SDS011;18502;43.574;1.276;2023-05-07T00:25:56;17.02;;;10.60;;
31978;SDS011;18502;43.574;1.276;2023-05-07T00:28:21;19.70;;;10.48;;
31978;SDS011;18502;43.574;1.276;2023-05-07T00:30:47;16.33;;;9.95;;
31978;SDS011;18502;43.574;1.276;2023-05-07T00:33:13;17.20;;;9.43;;
31978;SDS011;18502;43.574;1.276;2023-05-07T00:35:38;18.90;;;9.60;;
31978;SDS011;18502;43.574;1.276;2023-05-07T00:38:04;19.45;;;9.73;;
31978;SDS011;18502;43.574;1.276;2023-05-07T00:40:30;20.95;;;10.40;;
31978;SDS011;18502;43.574;1.276;2023-05-07T00:42:56;14.95;;;8.70;;
31978;SDS011;18502;43.574;1.276;2023-05-07T00:45:23;20.00;;;9.32;;
31978;SDS011;18502;43.574;1.276;2023-05-07T00:47:54;19.15;;;9.85;;
31978;SDS011;18502;43.574;1.276;2023-05-07T00:50:22;19.98;;;9.02;;
31978;SDS011;18502;43.574;1.276;2023-05-07T00:52:48;18.27;;;8.50;;
31978;SDS011;18502;43.574;1.276;2023-05-07T00:55:13;18.65;;;8.02;;
31978;SDS011;18502;43.574;1.276;2023-05-07T00:57:40;22.55;;;8.77;;
31978;SDS011;18502;43.574;1.276;2023-05-07T01:00:06;15.85;;;8.98;;
31978;SDS011;18502;43.574;1.276;2023-05-07T01:02:34;19.52;;;7.38;;
31978;SDS011;18502;43.574;1.276;2023-05-07T01:05:01;19.15;;;7.95;;
31978;SDS011;18502;43.574;1.276;2023-05-07T01:07:29;17.45;;;6.82;;
31978;SDS011;18502;43.574;1.276;2023-05-07T01:09:55;16.15;;;6.68;;
31978;SDS011;18502;43.574;1.276;2023-05-07T01:12:21;17.20;;;6.93;;
31978;SDS011;18502;43.574;1.276;2023-05-07T01:14:48;21.80;;;6.57;;
31978;SDS011;18502;43.574;1.276;2023-05-07T01:17:15;18.90;;;6.88;;
31978;SDS011;18502;43.574;1.276;2023-05-07T01:19:41;18.77;;;6.80;;
31978;SDS011;18502;43.574;1.276;2023-05-07T01:22:08;12.98;;;5.55;;
31978;SDS011;18502;43.574;1.276;2023-05-07T01:24:36;16.20;;;6.72;;
31978;SDS011;18502;43.574;1.276;2023-05-07T01:27:02;13.65;;;6.13;;
31978;SDS011;18502;43.574;1.276;2023-05-07T01:29:29;14.30;;;6.30;;
31978;SDS011;18502;43.574;1.276;2023-05-07T01:31:56;19.65;;;5.93;;
31978;SDS011;18502;43.574;1.276;2023-05-07T01:34:23;18.80;;;6.30;;
31978;SDS011;18502;43.574;1.276;2023-05-07T01:36:52;21.58;;;5.95;;
31978;SDS011;18502;43.574;1.276;2023-05-07T01:39:18;20.77;;;6.13;;
31978;SDS011;18502;43.574;1.276;2023-05-07T01:41:44;20.20;;;7.00;;
31978;SDS011;18502;43.574;1.276;2023-05-07T01:44:11;17.27;;;6.75;;
31978;SDS011;18502;43.574;1.276;2023-05-07T01:46:38;14.43;;;5.90;;
31978;SDS011;18502;43.574;1.276;2023-05-07T01:49:04;18.38;;;5.85;;
31978;SDS011;18502;43.574;1.276;2023-05-07T01:51:30;21.65;;;5.97;;
31978;SDS011;18502;43.574;1.276;2023-05-07T01:53:56;18.80;;;7.13;;
31978;SDS011;18502;43.574;1.276;2023-05-07T01:56:23;16.45;;;6.38;;
31978;SDS011;18502;43.574;1.276;2023-05-07T01:58:49;14.45;;;6.07;;
31978;SDS011;18502;43.574;1.276;2023-05-07T02:01:16;18.63;;;6.28;;
31978;SDS011;18502;43.574;1.276;2023-05-07T02:03:41;19.63;;;6.38;;
31978;SDS011;18502;43.574;1.276;2023-05-07T02:06:07;20.00;;;7.50;;
31978;SDS011;18502;43.574;1.276;2023-05-07T02:08:33;19.70;;;5.70;;
31978;SDS011;18502;43.574;1.276;2023-05-07T02:10:58;17.77;;;6.03;;
31978;SDS011;18502;43.574;1.276;2023-05-07T02:13:25;17.13;;;6.22;;
31978;SDS011;18502;43.574;1.276;2023-05-07T02:15:53;16.63;;;6.50;;
31978;SDS011;18502;43.574;1.276;2023-05-07T02:18:19;22.35;;;6.22;;
31978;SDS011;18502;43.574;1.276;2023-05-07T02:20:45;18.13;;;5.80;;
31978;SDS011;18502;43.574;1.276;2023-05-07T02:23:10;18.95;;;6.15;;
31978;SDS011;18502;43.574;1.276;2023-05-07T02:25:36;16.10;;;6.07;;
31978;SDS011;18502;43.574;1.276;2023-05-07T02:28:03;18.42;;;6.82;;
31978;SDS011;18502;43.574;1.276;2023-05-07T02:30:28;16.48;;;6.68;;
31978;SDS011;18502;43.574;1.276;2023-05-07T02:32:54;17.80;;;7.00;;
31978;SDS011;18502;43.574;1.276;2023-05-07T02:35:20;23.08;;;6.47;;
31978;SDS011;18502;43.574;1.276;2023-05-07T02:37:45;15.32;;;5.95;;
31978;SDS011;18502;43.574;1.276;2023-05-07T02:40:11;20.10;;;7.15;;
31978;SDS011;18502;43.574;1.276;2023-05-07T02:42:37;20.10;;;6.85;;
31978;SDS011;18502;43.574;1.276;2023-05-07T02:45:03;15.05;;;5.75;;
31978;SDS011;18502;43.574;1.276;2023-05-07T02:47:29;22.83;;;6.90;;
31978;SDS011;18502;43.574;1.276;2023-05-07T02:49:55;22.90;;;7.13;;
31978;SDS011;18502;43.574;1.276;2023-05-07T02:52:21;21.60;;;6.07;;
31978;SDS011;18502;43.574;1.276;2023-05-07T02:54:46;15.25;;;6.43;;
31978;SDS011;18502;43.574;1.276;2023-05-07T02:57:12;17.20;;;5.97;;
31978;SDS011;18502;43.574;1.276;2023-05-07T02:59:38;22.90;;;6.45;;
31978;SDS011;18502;43.574;1.276;2023-05-07T03:02:04;28.77;;;7.22;;
31978;SDS011;18502;43.574;1.276;2023-05-07T03:04:30;25.23;;;6.82;;
31978;SDS011;18502;43.574;1.276;2023-05-07T03:06:56;17.80;;;5.75;;
31978;SDS011;18502;43.574;1.276;2023-05-07T03:09:21;25.92;;;6.28;;
31978;SDS011;18502;43.574;1.276;2023-05-07T03:11:47;20.92;;;6.43;;
31978;SDS011;18502;43.574;1.276;2023-05-07T03:14:13;18.95;;;6.22;;
31978;SDS011;18502;43.574;1.276;2023-05-07T03:16:39;19.27;;;5.43;;
31978;SDS011;18502;43.574;1.276;2023-05-07T03:19:05;19.98;;;6.15;;
31978;SDS011;18502;43.574;1.276;2023-05-07T03:21:31;17.67;;;5.80;;
31978;SDS011;18502;43.574;1.276;2023-05-07T03:23:58;16.70;;;6.10;;
31978;SDS011;18502;43.574;1.276;2023-05-07T03:26:24;20.55;;;6.13;;
31978;SDS011;18502;43.574;1.276;2023-05-07T03:28:50;20.33;;;6.43;;
31978;SDS011;18502;43.574;1.276;2023-05-07T03:31:16;20.25;;;6.63;;
31978;SDS011;18502;43.574;1.276;2023-05-07T03:33:51;21.52;;;6.38;;
31978;SDS011;18502;43.574;1.276;2023-05-07T03:36:18;22.55;;;5.93;;
31978;SDS011;18502;43.574;1.276;2023-05-07T03:38:44;15.20;;;5.78;;
31978;SDS011;18502;43.574;1.276;2023-05-07T03:41:10;20.40;;;6.30;;
31978;SDS011;18502;43.574;1.276;2023-05-07T03:43:35;15.70;;;6.05;;
31978;SDS011;18502;43.574;1.276;2023-05-07T03:46:01;18.25;;;5.78;;
31978;SDS011;18502;43.574;1.276;2023-05-07T03:48:27;20.00;;;6.05;;
31978;SDS011;18502;43.574;1.276;2023-05-07T03:50:52;20.00;;;5.55;;
31978;SDS011;18502;43.574;1.276;2023-05-07T03:53:18;19.95;;;5.15;;
31978;SDS011;18502;43.574;1.276;2023-05-07T03:55:43;14.05;;;5.88;;
31978;SDS011;18502;43.574;1.276;2023-05-07T03:58:09;20.35;;;5.72;;
31978;SDS011;18502;43.574;1.276;2023-05-07T04:00:35;17.60;;;5.80;;
31978;SDS011;18502;43.574;1.276;2023-05-07T04:03:03;17.83;;;5.18;;
31978;SDS011;18502;43.574;1.276;2023-05-07T04:05:30;19.80;;;6.15;;
31978;SDS011;18502;43.574;1.276;2023-05-07T04:07:57;20.27;;;5.75;;
31978;SDS011;18502;43.574;1.276;2023-05-07T04:10:23;20.33;;;5.97;;
31978;SDS011;18502;43.574;1.276;2023-05-07T04:12:49;20.65;;;6.25;;
31978;SDS011;18502;43.574;1.276;2023-05-07T04:15:14;19.40;;;5.03;;
31978;SDS011;18502;43.574;1.276;2023-05-07T04:17:40;17.17;;;5.50;;
31978;SDS011;18502;43.574;1.276;2023-05-07T04:20:08;15.32;;;4.80;;
31978;SDS011;18502;43.574;1.276;2023-05-07T04:22:35;19.75;;;5.53;;
31978;SDS011;18502;43.574;1.276;2023-05-07T04:25:01;18.33;;;5.00;;
31978;SDS011;18502;43.574;1.276;2023-05-07T04:27:27;14.93;;;5.32;;
31978;SDS011;18502;43.574;1.276;2023-05-07T04:29:53;21.45;;;5.60;;
31978;SDS011;18502;43.574;1.276;2023-05-07T04:32:20;11.75;;;3.97;;
31978;SDS011;18502;43.574;1.276;2023-05-07T04:34:47;15.63;;;5.00;;
31978;SDS011;18502;43.574;1.276;2023-05-07T04:37:12;20.98;;;5.50;;
31978;SDS011;18502;43.574;1.276;2023-05-07T04:39:38;16.92;;;5.70;;
31978;SDS011;18502;43.574;1.276;2023-05-07T04:42:04;22.27;;;5.35;;
31978;SDS011;18502;43.574;1.276;2023-05-07T04:44:32;19.23;;;5.93;;
31978;SDS011;18502;43.574;1.276;2023-05-07T04:46:59;23.20;;;5.93;;
31978;SDS011;18502;43.574;1.276;2023-05-07T04:49:25;24.40;;;5.85;;
31978;SDS011;18502;43.574;1.276;2023-05-07T04:51:50;17.45;;;5.00;;
31978;SDS011;18502;43.574;1.276;2023-05-07T04:54:16;19.88;;;5.18;;
31978;SDS011;18502;43.574;1.276;2023-05-07T04:56:41;15.48;;;4.72;;
31978;SDS011;18502;43.574;1.276;2023-05-07T04:59:07;22.63;;;5.65;;
31978;SDS011;18502;43.574;1.276;2023-05-07T05:01:33;16.25;;;5.20;;
31978;SDS011;18502;43.574;1.276;2023-05-07T05:03:58;20.80;;;6.00;;
31978;SDS011;18502;43.574;1.276;2023-05-07T05:06:25;21.50;;;5.18;;
31978;SDS011;18502;43.574;1.276;2023-05-07T05:08:51;17.25;;;5.57;;
31978;SDS011;18502;43.574;1.276;2023-05-07T05:11:16;16.25;;;5.57;;
31978;SDS011;18502;43.574;1.276;2023-05-07T05:13:42;16.90;;;5.57;;
31978;SDS011;18502;43.574;1.276;2023-05-07T05:16:08;15.88;;;4.93;;
31978;SDS011;18502;43.574;1.276;2023-05-07T05:18:34;15.52;;;4.90;;
31978;SDS011;18502;43.574;1.276;2023-05-07T05:20:59;19.38;;;5.80;;
31978;SDS011;18502;43.574;1.276;2023-05-07T05:23:25;18.85;;;5.47;;
31978;SDS011;18502;43.574;1.276;2023-05-07T05:25:55;22.83;;;5.47;;
31978;SDS011;18502;43.574;1.276;2023-05-07T05:28:25;17.10;;;5.05;;
31978;SDS011;18502;43.574;1.276;2023-05-07T05:30:50;20.75;;;5.20;;
31978;SDS011;18502;43.574;1.276;2023-05-07T05:33:16;13.10;;;4.40;;
31978;SDS011;18502;43.574;1.276;2023-05-07T05:35:42;17.95;;;5.78;;
31978;SDS011;18502;43.574;1.276;2023-05-07T05:38:07;18.10;;;5.07;;
31978;SDS011;18502;43.574;1.276;2023-05-07T05:40:33;11.45;;;4.15;;
31978;SDS011;18502;43.574;1.276;2023-05-07T05:42:59;22.08;;;5.63;;
31978;SDS011;18502;43.574;1.276;2023-05-07T05:45:25;15.75;;;4.15;;
31978;SDS011;18502;43.574;1.276;2023-05-07T05:47:51;17.77;;;5.22;;
31978;SDS011;18502;43.574;1.276;2023-05-07T05:50:16;15.48;;;4.20;;
31978;SDS011;18502;43.574;1.276;2023-05-07T05:52:42;16.15;;;4.60;;
31978;SDS011;18502;43.574;1.276;2023-05-07T05:55:08;14.98;;;4.55;;
31978;SDS011;18502;43.574;1.276;2023-05-07T05:57:34;10.43;;;3.63;;
31978;SDS011;18502;43.574;1.276;2023-05-07T06:00:00;16.88;;;4.45;;
31978;SDS011;18502;43.574;1.276;2023-05-07T06:02:27;9.43;;;3.60;;
31978;SDS011;18502;43.574;1.276;2023-05-07T06:04:53;12.38;;;4.07;;
31978;SDS011;18502;43.574;1.276;2023-05-07T06:07:18;10.88;;;3.90;;
31978;SDS011;18502;43.574;1.276;2023-05-07T06:09:44;15.15;;;5.50;;
31978;SDS011;18502;43.574;1.276;2023-05-07T06:12:10;11.75;;;3.90;;
31978;SDS011;18502;43.574;1.276;2023-05-07T06:14:36;11.75;;;4.10;;
31978;SDS011;18502;43.574;1.276;2023-05-07T06:17:02;14.60;;;4.35;;
31978;SDS011;18502;43.574;1.276;2023-05-07T06:19:27;17.60;;;5.07;;
31978;SDS011;18502;43.574;1.276;2023-05-07T06:21:53;19.80;;;4.13;;
31978;SDS011;18502;43.574;1.276;2023-05-07T06:24:21;14.73;;;4.82;;
31978;SDS011;18502;43.574;1.276;2023-05-07T06:26:47;10.90;;;3.95;;
31978;SDS011;18502;43.574;1.276;2023-05-07T06:29:13;15.43;;;4.85;;
31978;SDS011;18502;43.574;1.276;2023-05-07T06:31:38;18.65;;;5.03;;
31978;SDS011;18502;43.574;1.276;2023-05-07T06:34:04;11.20;;;4.20;;
31978;SDS011;18502;43.574;1.276;2023-05-07T06:36:30;21.45;;;5.03;;
31978;SDS011;18502;43.574;1.276;2023-05-07T06:38:56;10.75;;;4.07;;
31978;SDS011;18502;43.574;1.276;2023-05-07T06:41:22;16.70;;;4.40;;
31978;SDS011;18502;43.574;1.276;2023-05-07T06:43:47;11.38;;;3.70;;
31978;SDS011;18502;43.574;1.276;2023-05-07T06:46:13;17.98;;;4.40;;
31978;SDS011;18502;43.574;1.276;2023-05-07T06:48:38;15.18;;;4.82;;
31978;SDS011;18502;43.574;1.276;2023-05-07T06:51:04;22.92;;;5.32;;
31978;SDS011;18502;43.574;1.276;2023-05-07T06:53:30;11.82;;;4.40;;
31978;SDS011;18502;43.574;1.276;2023-05-07T06:55:56;14.02;;;4.10;;
31978;SDS011;18502;43.574;1.276;2023-05-07T06:58:22;14.95;;;4.40;;
31978;SDS011;18502;43.574;1.276;2023-05-07T07:00:47;19.13;;;4.50;;
31978;SDS011;18502;43.574;1.276;2023-05-07T07:03:13;19.10;;;5.00;;
31978;SDS011;18502;43.574;1.276;2023-05-07T07:05:42;22.27;;;4.45;;
31978;SDS011;18502;43.574;1.276;2023-05-07T07:08:08;13.32;;;3.58;;
31978;SDS011;18502;43.574;1.276;2023-05-07T07:10:34;15.95;;;3.83;;
31978;SDS011;18502;43.574;1.276;2023-05-07T07:13:00;12.02;;;3.83;;
31978;SDS011;18502;43.574;1.276;2023-05-07T07:15:26;16.95;;;4.32;;
31978;SDS011;18502;43.574;1.276;2023-05-07T07:17:51;9.45;;;3.97;;
31978;SDS011;18502;43.574;1.276;2023-05-07T07:20:17;16.48;;;3.88;;
31978;SDS011;18502;43.574;1.276;2023-05-07T07:22:42;16.65;;;4.55;;
31978;SDS011;18502;43.574;1.276;2023-05-07T07:25:08;22.38;;;4.20;;
31978;SDS011;18502;43.574;1.276;2023-05-07T07:27:34;10.13;;;4.05;;
31978;SDS011;18502;43.574;1.276;2023-05-07T07:30:00;14.75;;;3.80;;
31978;SDS011;18502;43.574;1.276;2023-05-07T07:32:26;12.82;;;3.65;;
31978;SDS011;18502;43.574;1.276;2023-05-07T07:34:52;10.60;;;3.72;;
31978;SDS011;18502;43.574;1.276;2023-05-07T07:37:17;18.45;;;4.15;;
31978;SDS011;18502;43.574;1.276;2023-05-07T07:39:43;14.27;;;3.63;;
31978;SDS011;18502;43.574;1.276;2023-05-07T07:42:09;9.23;;;3.55;;
31978;SDS011;18502;43.574;1.276;2023-05-07T07:44:34;14.45;;;3.90;;
31978;SDS011;18502;43.574;1.276;2023-05-07T07:47:00;10.00;;;3.38;;
31978;SDS011;18502;43.574;1.276;2023-05-07T07:49:26;10.57;;;3.40;;
31978;SDS011;18502;43.574;1.276;2023-05-07T07:51:52;9.82;;;3.60;;
31978;SDS011;18502;43.574;1.276;2023-05-07T07:54:17;14.00;;;4.43;;
31978;SDS011;18502;43.574;1.276;2023-05-07T07:56:43;10.23;;;3.20;;
31978;SDS011;18502;43.574;1.276;2023-05-07T07:59:09;10.75;;;3.63;;
31978;SDS011;18502;43.574;1.276;2023-05-07T08:01:35;15.05;;;3.33;;
31978;SDS011;18502;43.574;1.276;2023-05-07T08:04:00;14.82;;;4.90;;
31978;SDS011;18502;43.574;1.276;2023-05-07T08:06:28;12.15;;;3.95;;
31978;SDS011;18502;43.574;1.276;2023-05-07T08:08:54;14.38;;;3.67;;
31978;SDS011;18502;43.574;1.276;2023-05-07T08:11:20;10.23;;;3.60;;
31978;SDS011;18502;43.574;1.276;2023-05-07T08:13:46;17.80;;;4.57;;
31978;SDS011;18502;43.574;1.276;2023-05-07T08:16:12;13.90;;;4.00;;
31978;SDS011;18502;43.574;1.276;2023-05-07T08:18:38;11.07;;;3.85;;
31978;SDS011;18502;43.574;1.276;2023-05-07T08:21:04;17.38;;;5.03;;
31978;SDS011;18502;43.574;1.276;2023-05-07T08:23:29;9.30;;;3.05;;
31978;SDS011;18502;43.574;1.276;2023-05-07T08:25:55;11.88;;;3.20;;
31978;SDS011;18502;43.574;1.276;2023-05-07T08:28:21;10.57;;;2.80;;
31978;SDS011;18502;43.574;1.276;2023-05-07T08:30:47;10.07;;;3.30;;
31978;SDS011;18502;43.574;1.276;2023-05-07T08:33:12;13.30;;;3.85;;
31978;SDS011;18502;43.574;1.276;2023-05-07T08:35:38;15.65;;;4.40;;
31978;SDS011;18502;43.574;1.276;2023-05-07T08:38:04;16.02;;;3.60;;
31978;SDS011;18502;43.574;1.276;2023-05-07T08:40:29;13.38;;;3.28;;
31978;SDS011;18502;43.574;1.276;2023-05-07T08:43:07;13.70;;;3.55;;
31978;SDS011;18502;43.574;1.276;2023-05-07T08:45:33;11.40;;;3.55;;
31978;SDS011;18502;43.574;1.276;2023-05-07T08:48:01;9.98;;;3.28;;
31978;SDS011;18502;43.574;1.276;2023-05-07T08:50:28;11.52;;;3.90;;
31978;SDS011;18502;43.574;1.276;2023-05-07T08:52:56;16.77;;;3.72;;
31978;SDS011;18502;43.574;1.276;2023-05-07T08:55:22;10.85;;;3.20;;
31978;SDS011;18502;43.574;1.276;2023-05-07T08:57:50;13.00;;;4.13;;
31978;SDS011;18502;43.574;1.276;2023-05-07T09:00:17;11.75;;;3.45;;
31978;SDS011;18502;43.574;1.276;2023-05-07T09:02:43;11.07;;;3.13;;
31978;SDS011;18502;43.574;1.276;2023-05-07T09:05:09;11.95;;;3.55;;
31978;SDS011;18502;43.574;1.276;2023-05-07T09:07:34;14.45;;;3.42;;
31978;SDS011;18502;43.574;1.276;2023-05-07T09:10:04;12.95;;;3.72;;
31978;SDS011;18502;43.574;1.276;2023-05-07T09:12:30;11.55;;;3.45;;
31978;SDS011;18502;43.574;1.276;2023-05-07T09:14:56;15.00;;;3.35;;
31978;SDS011;18502;43.574;1.276;2023-05-07T09:17:22;12.77;;;3.47;;
31978;SDS011;18502;43.574;1.276;2023-05-07T09:19:47;14.00;;;3.35;;
31978;SDS011;18502;43.574;1.276;2023-05-07T09:22:13;14.60;;;3.78;;
31978;SDS011;18502;43.574;1.276;2023-05-07T09:24:39;12.65;;;3.53;;
31978;SDS011;18502;43.574;1.276;2023-05-07T09:27:05;6.82;;;2.78;;
31978;SDS011;18502;43.574;1.276;2023-05-07T09:29:31;11.60;;;2.80;;
31978;SDS011;18502;43.574;1.276;2023-05-07T09:32:09;14.70;;;3.03;;
31978;SDS011;18502;43.574;1.276;2023-05-07T09:34:35;12.13;;;3.70;;
31978;SDS011;18502;43.574;1.276;2023-05-07T09:37:01;11.50;;;3.80;;
31978;SDS011;18502;43.574;1.276;2023-05-07T09:39:41;9.77;;;3.15;;
31978;SDS011;18502;43.574;1.276;2023-05-07T09:42:08;9.40;;;3.63;;
31978;SDS011;18502;43.574;1.276;2023-05-07T09:44:36;15.20;;;4.10;;
31978;SDS011;18502;43.574;1.276;2023-05-07T09:47:04;9.63;;;3.83;;
31978;SDS011;18502;43.574;1.276;2023-05-07T09:49:31;10.10;;;3.50;;
31978;SDS011;18502;43.574;1.276;2023-05-07T09:52:02;8.93;;;3.25;;
31978;SDS011;18502;43.574;1.276;2023-05-07T09:54:31;10.70;;;3.30;;
31978;SDS011;18502;43.574;1.276;2023-05-07T09:56:58;15.98;;;5.05;;
31978;SDS011;18502;43.574;1.276;2023-05-07T09:59:27;10.40;;;3.33;;
31978;SDS011;18502;43.574;1.276;2023-05-07T10:01:56;15.32;;;3.58;;
31978;SDS011;18502;43.574;1.276;2023-05-07T10:04:24;13.20;;;4.25;;
31978;SDS011;18502;43.574;1.276;2023-05-07T10:06:53;11.93;;;3.97;;
31978;SDS011;18502;43.574;1.276;2023-05-07T10:09:20;13.18;;;3.60;;
31978;SDS011;18502;43.574;1.276;2023-05-07T10:11:48;9.38;;;2.60;;
31978;SDS011;18502;43.574;1.276;2023-05-07T10:14:14;9.48;;;3.47;;
31978;SDS011;18502;43.574;1.276;2023-05-07T10:16:40;17.55;;;4.07;;
31978;SDS011;18502;43.574;1.276;2023-05-07T10:19:07;14.18;;;3.10;;
31978;SDS011;18502;43.574;1.276;2023-05-07T10:21:37;15.52;;;4.25;;
31978;SDS011;18502;43.574;1.276;2023-05-07T10:24:41;11.75;;;3.92;;
31978;SDS011;18502;43.574;1.276;2023-05-07T10:27:02;14.25;;;3.40;;
31978;SDS011;18502;43.574;1.276;2023-05-07T10:29:34;12.48;;;3.65;;
31978;SDS011;18502;43.574;1.276;2023-05-07T10:34:53;11.38;;;3.67;;
31978;SDS011;18502;43.574;1.276;2023-05-07T10:37:21;10.18;;;3.00;;
31978;SDS011;18502;43.574;1.276;2023-05-07T10:39:48;9.52;;;3.58;;
31978;SDS011;18502;43.574;1.276;2023-05-07T10:42:14;11.77;;;3.85;;
31978;SDS011;18502;43.574;1.276;2023-05-07T10:44:40;16.35;;;3.58;;
31978;SDS011;18502;43.574;1.276;2023-05-07T10:49:34;12.82;;;3.55;;
31978;SDS011;18502;43.574;1.276;2023-05-07T10:52:17;14.30;;;4.20;;
31978;SDS011;18502;43.574;1.276;2023-05-07T10:55:18;16.10;;;4.80;;
31978;SDS011;18502;43.574;1.276;2023-05-07T10:57:42;9.18;;;3.40;;
31978;SDS011;18502;43.574;1.276;2023-05-07T11:05:30;10.98;;;2.53;;
31978;SDS011;18502;43.574;1.276;2023-05-07T11:07:58;10.57;;;2.75;;
31978;SDS011;18502;43.574;1.276;2023-05-07T11:13:11;8.80;;;2.75;;
31978;SDS011;18502;43.574;1.276;2023-05-07T11:15:41;10.75;;;3.17;;
31978;SDS011;18502;43.574;1.276;2023-05-07T11:18:09;20.75;;;8.70;;
31978;SDS011;18502;43.574;1.276;2023-05-07T11:26:05;22.02;;;7.78;;
31978;SDS011;18502;43.574;1.276;2023-05-07T11:28:40;55.33;;;23.77;;
31978;SDS011;18502;43.574;1.276;2023-05-07T11:31:08;11.05;;;5.40;;
31978;SDS011;18502;43.574;1.276;2023-05-07T11:33:34;8.25;;;2.75;;
31978;SDS011;18502;43.574;1.276;2023-05-07T11:36:04;11.60;;;3.22;;
31978;SDS011;18502;43.574;1.276;2023-05-07T11:38:30;6.57;;;2.40;;
31978;SDS011;18502;43.574;1.276;2023-05-07T11:41:00;7.50;;;2.40;;
31978;SDS011;18502;43.574;1.276;2023-05-07T11:43:26;13.38;;;3.92;;
31978;SDS011;18502;43.574;1.276;2023-05-07T11:45:52;10.40;;;3.25;;
31978;SDS011;18502;43.574;1.276;2023-05-07T11:48:18;17.15;;;5.78;;
31978;SDS011;18502;43.574;1.276;2023-05-07T11:50:53;9.00;;;2.33;;
31978;SDS011;18502;43.574;1.276;2023-05-07T11:53:37;66.95;;;33.30;;
31978;SDS011;18502;43.574;1.276;2023-05-07T11:56:14;40.28;;;18.38;;
31978;SDS011;18502;43.574;1.276;2023-05-07T11:58:41;60.08;;;24.02;;
31978;SDS011;18502;43.574;1.276;2023-05-07T12:01:11;10.93;;;2.50;;
31978;SDS011;18502;43.574;1.276;2023-05-07T12:03:41;15.88;;;7.18;;
31978;SDS011;18502;43.574;1.276;2023-05-07T12:06:09;14.98;;;4.00;;
31978;SDS011;18502;43.574;1.276;2023-05-07T12:08:36;15.43;;;3.67;;
31978;SDS011;18502;43.574;1.276;2023-05-07T12:11:03;8.70;;;2.58;;
31978;SDS011;18502;43.574;1.276;2023-05-07T12:13:31;10.48;;;2.70;;
31978;SDS011;18502;43.574;1.276;2023-05-07T12:15:57;6.43;;;2.15;;
31978;SDS011;18502;43.574;1.276;2023-05-07T12:18:23;8.93;;;1.95;;
31978;SDS011;18502;43.574;1.276;2023-05-07T12:20:49;9.80;;;2.17;;
31978;SDS011;18502;43.574;1.276;2023-05-07T12:23:16;6.65;;;2.40;;
31978;SDS011;18502;43.574;1.276;2023-05-07T12:25:42;9.50;;;2.80;;
31978;SDS011;18502;43.574;1.276;2023-05-07T12:28:18;5.07;;;2.38;;
31978;SDS011;18502;43.574;1.276;2023-05-07T12:30:45;6.85;;;2.08;;
31978;SDS011;18502;43.574;1.276;2023-05-07T12:33:13;9.00;;;2.33;;
31978;SDS011;18502;43.574;1.276;2023-05-07T12:35:42;9.07;;;2.88;;
31978;SDS011;18502;43.574;1.276;2023-05-07T12:38:12;6.47;;;2.33;;
31978;SDS011;18502;43.574;1.276;2023-05-07T12:40:46;7.13;;;2.20;;
31978;SDS011;18502;43.574;1.276;2023-05-07T12:43:18;7.85;;;2.33;;
31978;SDS011;18502;43.574;1.276;2023-05-07T12:45:45;5.07;;;2.10;;
31978;SDS011;18502;43.574;1.276;2023-05-07T12:48:13;6.22;;;1.60;;
31978;SDS011;18502;43.574;1.276;2023-05-07T12:50:39;5.28;;;1.50;;
31978;SDS011;18502;43.574;1.276;2023-05-07T12:53:06;5.65;;;2.60;;
31978;SDS011;18502;43.574;1.276;2023-05-07T12:55:43;9.57;;;2.58;;
31978;SDS011;18502;43.574;1.276;2023-05-07T12:58:16;5.68;;;2.03;;
31978;SDS011;18502;43.574;1.276;2023-05-07T13:00:43;4.82;;;1.70;;
31978;SDS011;18502;43.574;1.276;2023-05-07T13:03:09;5.47;;;2.38;;
31978;SDS011;18502;43.574;1.276;2023-05-07T13:05:36;6.28;;;1.77;;
31978;SDS011;18502;43.574;1.276;2023-05-07T13:08:01;3.97;;;1.75;;
31978;SDS011;18502;43.574;1.276;2023-05-07T13:10:27;6.18;;;2.47;;
31978;SDS011;18502;43.574;1.276;2023-05-07T13:12:53;7.55;;;2.13;;
31978;SDS011;18502;43.574;1.276;2023-05-07T13:15:19;6.13;;;2.15;;
31978;SDS011;18502;43.574;1.276;2023-05-07T13:17:46;7.82;;;2.75;;
31978;SDS011;18502;43.574;1.276;2023-05-07T13:20:12;8.20;;;2.50;;
31978;SDS011;18502;43.574;1.276;2023-05-07T13:22:39;7.75;;;2.42;;
31978;SDS011;18502;43.574;1.276;2023-05-07T13:25:05;4.50;;;1.90;;
31978;SDS011;18502;43.574;1.276;2023-05-07T13:27:31;4.72;;;2.03;;
31978;SDS011;18502;43.574;1.276;2023-05-07T13:29:57;4.15;;;1.48;;
31978;SDS011;18502;43.574;1.276;2023-05-07T13:32:22;6.78;;;2.10;;
31978;SDS011;18502;43.574;1.276;2023-05-07T13:34:48;6.05;;;1.83;;
31978;SDS011;18502;43.574;1.276;2023-05-07T13:37:15;9.52;;;2.33;;
31978;SDS011;18502;43.574;1.276;2023-05-07T13:39:41;7.70;;;2.25;;
31978;SDS011;18502;43.574;1.276;2023-05-07T13:42:07;5.95;;;2.15;;
31978;SDS011;18502;43.574;1.276;2023-05-07T13:44:32;6.65;;;2.08;;
31978;SDS011;18502;43.574;1.276;2023-05-07T13:46:58;7.20;;;1.75;;
31978;SDS011;18502;43.574;1.276;2023-05-07T13:49:24;3.75;;;1.70;;
31978;SDS011;18502;43.574;1.276;2023-05-07T13:51:49;3.35;;;1.40;;
31978;SDS011;18502;43.574;1.276;2023-05-07T13:54:15;5.40;;;1.63;;
31978;SDS011;18502;43.574;1.276;2023-05-07T13:56:41;5.68;;;1.88;;
31978;SDS011;18502;43.574;1.276;2023-05-07T13:59:06;8.13;;;1.83;;
31978;SDS011;18502;43.574;1.276;2023-05-07T14:01:32;6.88;;;2.17;;
31978;SDS011;18502;43.574;1.276;2023-05-07T14:03:58;7.00;;;2.00;;
31978;SDS011;18502;43.574;1.276;2023-05-07T14:06:24;7.45;;;2.30;;
31978;SDS011;18502;43.574;1.276;2023-05-07T14:08:50;7.00;;;1.55;;
31978;SDS011;18502;43.574;1.276;2023-05-07T14:11:16;4.35;;;1.75;;
31978;SDS011;18502;43.574;1.276;2023-05-07T14:13:41;5.30;;;1.83;;
31978;SDS011;18502;43.574;1.276;2023-05-07T14:16:07;3.80;;;1.48;;
31978;SDS011;18502;43.574;1.276;2023-05-07T14:18:33;3.80;;;1.60;;
31978;SDS011;18502;43.574;1.276;2023-05-07T14:20:59;3.47;;;1.50;;
31978;SDS011;18502;43.574;1.276;2023-05-07T14:23:25;6.38;;;1.70;;
31978;SDS011;18502;43.574;1.276;2023-05-07T14:25:52;5.00;;;1.75;;
31978;SDS011;18502;43.574;1.276;2023-05-07T14:28:18;4.97;;;2.25;;
31978;SDS011;18502;43.574;1.276;2023-05-07T14:30:44;6.95;;;1.90;;
31978;SDS011;18502;43.574;1.276;2023-05-07T14:33:10;5.10;;;1.60;;
31978;SDS011;18502;43.574;1.276;2023-05-07T14:35:35;4.75;;;1.80;;
31978;SDS011;18502;43.574;1.276;2023-05-07T14:38:01;4.30;;;1.63;;
31978;SDS011;18502;43.574;1.276;2023-05-07T14:40:27;2.63;;;1.30;;
31978;SDS011;18502;43.574;1.276;2023-05-07T14:42:53;4.13;;;1.75;;
31978;SDS011;18502;43.574;1.276;2023-05-07T14:45:20;4.53;;;1.45;;
31978;SDS011;18502;43.574;1.276;2023-05-07T14:47:46;5.78;;;1.63;;
31978;SDS011;18502;43.574;1.276;2023-05-07T14:50:12;4.90;;;1.85;;
31978;SDS011;18502;43.574;1.276;2023-05-07T14:52:37;3.80;;;1.88;;
31978;SDS011;18502;43.574;1.276;2023-05-07T14:55:03;4.13;;;1.58;;